createdAt,value
2018-03-04T00:02:11.981Z,7.10
2018-03-04T00:04:39.683Z,7.10
2018-03-04T00:07:07.305Z,7.10
2018-03-04T00:09:35.644Z,7.00
2018-03-04T00:12:04.174Z,7.10
2018-03-04T00:14:32.359Z,7.10
2018-03-04T00:17:00.469Z,7.00
2018-03-04T00:19:28.829Z,6.90
2018-03-04T00:21:56.497Z,6.90
2018-03-04T00:24:24.489Z,6.80
2018-03-04T00:26:52.895Z,6.70
2018-03-04T00:29:20.571Z,6.80
2018-03-04T00:31:48.525Z,6.80
2018-03-04T00:34:16.127Z,6.80
2018-03-04T00:36:43.800Z,6.80
2018-03-04T00:39:11.940Z,6.90
2018-03-04T00:41:39.548Z,6.80
2018-03-04T00:44:07.923Z,6.80
2018-03-04T00:46:35.687Z,6.80
2018-03-04T00:49:04.871Z,6.80
2018-03-04T00:51:32.644Z,6.90
2018-03-04T00:54:00.240Z,6.90
2018-03-04T00:56:27.865Z,7.00
2018-03-04T00:58:55.487Z,6.90
2018-03-04T01:01:23.288Z,6.90
2018-03-04T01:03:50.947Z,6.90
2018-03-04T01:06:18.690Z,7.00
2018-03-04T01:08:46.325Z,6.90
2018-03-04T01:11:13.921Z,6.90
2018-03-04T01:13:41.865Z,6.90
2018-03-04T01:16:09.656Z,6.90
2018-03-04T01:18:37.418Z,6.90
2018-03-04T01:21:06.203Z,6.80
2018-03-04T01:23:34.120Z,6.90
2018-03-04T01:26:01.812Z,7.00
2018-03-04T01:28:29.554Z,6.90
2018-03-04T01:30:57.190Z,6.60
2018-03-04T01:33:25.565Z,6.60
2018-03-04T01:35:53.996Z,6.70
2018-03-04T01:38:21.605Z,6.70
2018-03-04T01:40:49.973Z,6.80
2018-03-04T01:43:18.159Z,6.80
2018-03-04T01:45:46.513Z,6.90
2018-03-04T01:48:14.117Z,6.90
2018-03-04T01:50:42.054Z,6.80
2018-03-04T01:53:10.531Z,6.80
2018-03-04T01:55:38.207Z,6.80
2018-03-04T01:58:05.814Z,6.80
2018-03-04T02:00:33.417Z,6.80
2018-03-04T02:03:01.018Z,6.70
2018-03-04T02:05:29.051Z,6.70
2018-03-04T02:07:56.889Z,6.60
2018-03-04T02:10:25.360Z,6.60
2018-03-04T02:12:52.980Z,6.60
2018-03-04T02:15:21.524Z,6.60
2018-03-04T02:17:49.926Z,6.50
2018-03-04T02:20:17.539Z,6.50
2018-03-04T02:22:45.521Z,6.40
2018-03-04T02:25:13.139Z,6.40
2018-03-04T02:27:40.752Z,6.20
2018-03-04T02:30:08.579Z,6.20
2018-03-04T02:32:36.713Z,6.20
2018-03-04T02:35:04.584Z,6.20
2018-03-04T02:37:32.949Z,6.10
2018-03-04T02:40:00.577Z,6.20
2018-03-04T02:42:28.181Z,6.10
2018-03-04T02:44:56.053Z,6.10
2018-03-04T02:47:23.988Z,6.10
2018-03-04T02:49:53.475Z,6.00
2018-03-04T02:52:21.066Z,6.00
2018-03-04T02:54:48.684Z,5.90
2018-03-04T02:57:17.254Z,5.90
2018-03-04T02:59:44.857Z,5.90
2018-03-04T03:02:12.996Z,5.90
2018-03-04T03:04:40.616Z,5.80
2018-03-04T03:07:08.210Z,5.70
2018-03-04T03:09:37.109Z,5.50
2018-03-04T03:12:04.988Z,5.50
2018-03-04T03:14:32.828Z,5.40
2018-03-04T03:17:01.203Z,5.40
2018-03-04T03:19:29.580Z,5.30
2018-03-04T03:21:58.148Z,5.30
2018-03-04T03:24:26.732Z,5.30
2018-03-04T03:26:55.102Z,5.30
2018-03-04T03:29:22.697Z,5.20
2018-03-04T03:31:51.331Z,5.20
2018-03-04T03:34:18.912Z,5.20
2018-03-04T03:36:47.334Z,5.20
2018-03-04T03:39:14.942Z,5.00
2018-03-04T03:41:42.552Z,5.00
2018-03-04T03:44:10.732Z,5.10
2018-03-04T03:46:38.886Z,5.10
2018-03-04T03:49:06.725Z,5.10
2018-03-04T03:51:35.117Z,5.20
2018-03-04T03:54:03.480Z,5.20
2018-03-04T03:56:31.150Z,5.20
2018-03-04T03:58:59.819Z,5.00
2018-03-04T04:01:29.368Z,5.00
2018-03-04T04:03:56.953Z,4.90
2018-03-04T04:06:25.596Z,4.90
2018-03-04T04:08:53.315Z,4.90
2018-03-04T04:11:20.931Z,4.80
2018-03-04T04:13:48.513Z,4.80
2018-03-04T04:16:16.112Z,4.80
2018-03-04T04:18:43.711Z,4.80
2018-03-04T04:21:11.540Z,4.70
2018-03-04T04:23:39.525Z,4.70
2018-03-04T04:26:07.243Z,4.70
2018-03-04T04:28:34.839Z,4.70
2018-03-04T04:31:02.447Z,4.70
2018-03-04T04:33:30.064Z,4.80
2018-03-04T04:35:57.751Z,4.70
2018-03-04T04:38:25.409Z,4.60
2018-03-04T04:40:53.000Z,4.50
2018-03-04T04:43:21.375Z,4.60
2018-03-04T04:45:48.977Z,4.50
2018-03-04T04:48:16.824Z,4.50
2018-03-04T04:50:44.653Z,4.40
2018-03-04T04:53:13.346Z,4.40
2018-03-04T04:55:40.937Z,4.40
2018-03-04T04:58:08.633Z,4.50
2018-03-04T05:00:36.213Z,4.30
2018-03-04T05:03:03.833Z,4.20
2018-03-04T05:05:31.740Z,4.10
2018-03-04T05:07:59.767Z,4.20
2018-03-04T05:10:28.632Z,4.10
2018-03-04T05:12:56.246Z,4.10
2018-03-04T05:15:24.536Z,4.10
2018-03-04T05:17:52.962Z,4.20
2018-03-04T05:20:20.575Z,4.20
2018-03-04T05:22:48.428Z,4.10
2018-03-04T05:25:16.025Z,4.10
2018-03-04T05:27:43.634Z,4.00
2018-03-04T05:30:11.235Z,4.10
2018-03-04T05:32:39.624Z,4.10
2018-03-04T05:35:08.032Z,4.10
2018-03-04T05:37:35.652Z,4.10
2018-03-04T05:40:03.460Z,4.00
2018-03-04T05:42:31.368Z,4.00
2018-03-04T05:44:59.108Z,4.00
2018-03-04T05:47:26.722Z,4.00
2018-03-04T05:49:55.074Z,4.00
2018-03-04T05:52:22.700Z,3.80
2018-03-04T05:54:51.400Z,3.80
2018-03-04T05:57:19.886Z,3.90
2018-03-04T05:59:47.598Z,3.90
2018-03-04T06:02:15.948Z,4.00
2018-03-04T06:04:43.577Z,4.00
2018-03-04T06:07:11.146Z,4.00
2018-03-04T06:09:39.629Z,4.00
2018-03-04T06:12:07.238Z,4.00
2018-03-04T06:14:34.894Z,4.00
2018-03-04T06:17:02.867Z,4.00
2018-03-04T06:19:31.494Z,3.90
2018-03-04T06:21:59.116Z,3.90
2018-03-04T06:24:27.477Z,4.00
2018-03-04T06:26:55.064Z,3.90
2018-03-04T06:29:22.708Z,3.90
2018-03-04T06:31:51.080Z,3.80
2018-03-04T06:34:18.694Z,3.80
2018-03-04T06:36:46.874Z,3.90
2018-03-04T06:39:14.506Z,4.00
2018-03-04T06:41:42.409Z,4.00
2018-03-04T06:44:10.194Z,4.10
2018-03-04T06:46:37.837Z,4.00
2018-03-04T06:49:05.866Z,4.10
2018-03-04T06:51:33.484Z,4.10
2018-03-04T06:54:01.216Z,4.10
2018-03-04T06:56:29.578Z,4.20
2018-03-04T06:58:58.171Z,4.30
2018-03-04T07:01:26.134Z,4.30
2018-03-04T07:03:53.791Z,4.40
2018-03-04T07:06:21.444Z,4.40
2018-03-04T07:08:49.053Z,4.40
2018-03-04T07:11:16.784Z,4.40
2018-03-04T07:13:44.926Z,4.60
2018-03-04T07:16:13.306Z,4.60
2018-03-04T07:18:41.702Z,4.70
2018-03-04T07:21:10.622Z,4.70
2018-03-04T07:23:38.601Z,4.70
2018-03-04T07:26:06.984Z,4.60
2018-03-04T07:28:34.630Z,4.70
2018-03-04T07:31:02.237Z,4.90
2018-03-04T07:33:30.810Z,5.10
2018-03-04T07:35:59.056Z,5.20
2018-03-04T07:38:26.880Z,5.40
2018-03-04T07:40:55.232Z,5.30
2018-03-04T07:43:29.072Z,5.30
2018-03-04T07:45:57.669Z,5.30
2018-03-04T07:48:25.911Z,5.30
2018-03-04T07:50:54.381Z,5.30
2018-03-04T07:53:22.789Z,5.40
2018-03-04T07:55:50.398Z,5.60
2018-03-04T07:58:23.625Z,5.50
2018-03-04T08:00:53.038Z,5.60
2018-03-04T08:03:20.746Z,5.60
2018-03-04T08:05:48.588Z,5.80
2018-03-04T08:08:16.783Z,5.60
2018-03-04T08:10:45.246Z,5.60
2018-03-04T08:13:14.005Z,6.10
2018-03-04T08:15:42.770Z,6.10
2018-03-04T08:18:10.591Z,6.20
2018-03-04T08:20:38.195Z,6.30
2018-03-04T08:23:06.552Z,6.30
2018-03-04T08:25:36.857Z,6.40
2018-03-04T08:28:16.675Z,6.40
2018-03-04T08:30:44.672Z,6.40
2018-03-04T08:33:13.296Z,6.40
2018-03-04T08:35:41.713Z,6.40
2018-03-04T08:38:09.447Z,6.40
2018-03-04T08:40:38.086Z,6.50
2018-03-04T08:43:06.325Z,6.50
2018-03-04T08:45:34.161Z,6.80
2018-03-04T08:48:03.098Z,7.00
2018-03-04T08:50:31.050Z,7.00
2018-03-04T08:52:58.802Z,7.00
2018-03-04T08:55:26.373Z,7.10
2018-03-04T08:57:55.424Z,7.30
2018-03-04T09:00:23.250Z,7.30
2018-03-04T09:02:50.864Z,7.50
2018-03-04T09:05:19.224Z,7.70
2018-03-04T09:07:46.948Z,7.70
2018-03-04T09:10:14.732Z,7.90
2018-03-04T09:12:42.397Z,8.00
2018-03-04T09:15:10.405Z,8.00
2018-03-04T09:17:38.238Z,8.20
2018-03-04T09:20:06.129Z,8.20
2018-03-04T09:22:34.298Z,8.10
2018-03-04T09:25:01.936Z,8.10
2018-03-04T09:27:29.951Z,8.20
2018-03-04T09:29:57.577Z,8.30
2018-03-04T09:32:25.174Z,8.40
2018-03-04T09:34:52.785Z,8.50
2018-03-04T09:37:20.393Z,8.50
2018-03-04T09:39:48.543Z,8.30
2018-03-04T09:42:16.569Z,8.50
2018-03-04T09:44:44.168Z,8.60
2018-03-04T09:47:12.526Z,8.80
2018-03-04T09:49:40.162Z,8.80
2018-03-04T09:52:08.201Z,9.00
2018-03-04T09:54:37.031Z,9.10
2018-03-04T09:57:04.834Z,9.20
2018-03-04T09:59:33.721Z,9.20
2018-03-04T10:02:01.585Z,9.30
2018-03-04T10:04:40.927Z,9.50
2018-03-04T10:07:10.104Z,9.50
2018-03-04T10:09:37.767Z,9.60
2018-03-04T10:12:16.700Z,9.60
2018-03-04T10:14:44.981Z,10.00
2018-03-04T10:17:12.737Z,10.00
2018-03-04T10:19:40.592Z,10.30
2018-03-04T10:22:08.174Z,10.40
2018-03-04T10:24:35.934Z,10.40
2018-03-04T10:27:03.507Z,10.80
2018-03-04T10:29:33.393Z,10.90
2018-03-04T10:32:01.364Z,10.90
2018-03-04T10:34:28.990Z,11.60
2018-03-04T10:36:56.565Z,11.60
2018-03-04T10:39:24.152Z,11.90
2018-03-04T10:41:52.133Z,12.00
2018-03-04T10:44:20.105Z,12.00
2018-03-04T10:46:48.969Z,12.10
2018-03-04T10:49:16.825Z,12.20
2018-03-04T10:51:45.125Z,12.20
2018-03-04T10:54:13.376Z,12.40
2018-03-04T10:56:41.136Z,12.40
2018-03-04T10:59:10.133Z,12.70
2018-03-04T11:01:41.900Z,12.70
2018-03-04T11:04:10.045Z,13.10
2018-03-04T11:06:37.653Z,13.40
2018-03-04T11:09:05.246Z,13.60
2018-03-04T11:11:32.872Z,13.90
2018-03-04T11:14:00.447Z,14.10
2018-03-04T11:16:28.032Z,14.10
2018-03-04T11:18:55.929Z,14.30
2018-03-04T11:21:23.631Z,14.40
2018-03-04T11:23:51.340Z,14.80
2018-03-04T11:26:18.937Z,15.30
2018-03-04T11:28:46.973Z,15.50
2018-03-04T11:31:14.595Z,15.60
2018-03-04T11:33:42.259Z,15.60
2018-03-04T11:36:09.879Z,15.70
2018-03-04T11:38:37.489Z,15.70
2018-03-04T11:41:05.095Z,16.00
2018-03-04T11:43:33.484Z,16.50
2018-03-04T11:46:01.103Z,16.50
2018-03-04T11:48:28.915Z,17.00
2018-03-04T11:50:57.285Z,17.90
2018-03-04T11:53:25.496Z,17.90
2018-03-04T11:55:53.156Z,18.00
2018-03-04T11:58:20.756Z,18.10
2018-03-04T12:00:48.341Z,18.50
2018-03-04T12:03:15.987Z,18.60
2018-03-04T12:05:44.359Z,18.80
2018-03-04T12:08:12.158Z,18.80
2018-03-04T12:10:40.569Z,19.20
2018-03-04T12:13:08.212Z,19.60
2018-03-04T12:15:35.817Z,19.60
2018-03-04T12:18:03.800Z,19.70
2018-03-04T12:20:31.426Z,19.90
2018-03-04T12:22:59.242Z,19.90
2018-03-04T12:25:26.911Z,20.20
2018-03-04T12:27:54.515Z,20.10
2018-03-04T12:30:22.207Z,19.80
2018-03-04T12:32:50.681Z,20.10
2018-03-04T12:35:19.145Z,20.40
2018-03-04T12:37:47.572Z,20.60
2018-03-04T12:40:15.167Z,20.60
2018-03-04T12:42:42.811Z,21.00
2018-03-04T12:45:10.384Z,21.40
2018-03-04T12:47:37.985Z,21.20
2018-03-04T12:50:05.647Z,21.10
2018-03-04T12:52:33.450Z,20.60
2018-03-04T12:55:01.864Z,20.80
2018-03-04T12:57:29.455Z,20.80
2018-03-04T12:59:57.170Z,21.10
2018-03-04T13:02:24.764Z,21.30
2018-03-04T13:04:53.165Z,21.20
2018-03-04T13:07:21.632Z,21.30
2018-03-04T13:09:49.222Z,21.20
2018-03-04T13:12:16.798Z,21.40
2018-03-04T13:14:44.828Z,21.40
2018-03-04T13:17:12.873Z,20.90
2018-03-04T13:19:40.655Z,20.30
2018-03-04T13:22:08.237Z,20.20
2018-03-04T13:24:36.589Z,18.60
2018-03-04T13:27:04.190Z,18.70
2018-03-04T13:29:31.984Z,18.80
2018-03-04T13:32:00.402Z,18.90
2018-03-04T13:34:28.043Z,19.10
2018-03-04T13:36:56.741Z,19.60
2018-03-04T13:39:25.037Z,19.20
2018-03-04T13:41:52.712Z,18.60
2018-03-04T13:44:21.466Z,18.00
2018-03-04T13:46:49.808Z,18.20
2018-03-04T13:49:17.393Z,18.30
2018-03-04T13:51:45.717Z,18.30
2018-03-04T13:54:13.302Z,18.50
2018-03-04T13:56:40.870Z,18.30
2018-03-04T13:59:09.301Z,18.80
2018-03-04T14:01:37.550Z,18.80
2018-03-04T14:04:05.151Z,18.80
2018-03-04T14:06:32.717Z,20.30
2018-03-04T14:09:00.366Z,20.40
2018-03-04T14:11:27.955Z,21.30
2018-03-04T14:13:55.697Z,21.20
2018-03-04T14:16:23.495Z,21.20
2018-03-04T14:18:51.990Z,21.70
2018-03-04T14:21:20.328Z,22.10
2018-03-04T14:23:47.924Z,22.20
2018-03-04T14:26:16.271Z,22.10
2018-03-04T14:28:44.965Z,22.10
2018-03-04T14:31:12.731Z,21.90
2018-03-04T14:33:40.368Z,21.90
2018-03-04T14:36:07.946Z,20.90
2018-03-04T14:38:35.527Z,20.50
2018-03-04T14:41:03.131Z,20.60
2018-03-04T14:43:31.379Z,20.60
2018-03-04T14:45:59.849Z,19.60
2018-03-04T14:48:27.443Z,18.90
2018-03-04T14:50:55.272Z,18.40
2018-03-04T14:53:22.862Z,18.40
2018-03-04T14:55:50.752Z,18.30
2018-03-04T14:58:18.748Z,18.00
2018-03-04T15:00:46.410Z,17.70
2018-03-04T15:03:14.106Z,17.60
2018-03-04T15:05:42.472Z,18.00
2018-03-04T15:08:10.564Z,18.10
2018-03-04T15:10:39.291Z,18.10
2018-03-04T15:13:07.081Z,17.50
2018-03-04T15:15:35.488Z,17.30
2018-03-04T15:18:03.848Z,17.20
2018-03-04T15:20:31.437Z,17.30
2018-03-04T15:22:59.756Z,17.20
2018-03-04T15:25:27.554Z,17.30
2018-03-04T15:27:55.198Z,17.20
2018-03-04T15:30:22.825Z,16.90
2018-03-04T15:32:50.405Z,16.40
2018-03-04T15:35:18.001Z,16.20
2018-03-04T15:37:45.998Z,15.90
2018-03-04T15:40:13.954Z,15.50
2018-03-04T15:42:42.307Z,15.60
2018-03-04T15:45:10.704Z,15.80
2018-03-04T15:47:38.437Z,15.60
2018-03-04T15:50:06.271Z,15.20
2018-03-04T15:52:34.007Z,15.20
2018-03-04T15:55:01.982Z,14.90
2018-03-04T15:57:30.408Z,14.70
2018-03-04T15:59:58.086Z,14.60
2018-03-04T16:02:25.864Z,14.50
2018-03-04T16:04:54.357Z,14.10
2018-03-04T16:07:22.120Z,14.10
2018-03-04T16:09:49.764Z,13.90
2018-03-04T16:12:17.605Z,13.80
2018-03-04T16:14:45.249Z,13.70
2018-03-04T16:17:12.836Z,13.50
2018-03-04T16:19:40.446Z,13.40
2018-03-04T16:22:08.128Z,13.40
2018-03-04T16:24:36.007Z,13.20
2018-03-04T16:27:03.589Z,13.60
2018-03-04T16:29:31.208Z,13.70
2018-03-04T16:31:58.811Z,13.80
2018-03-04T16:34:26.386Z,13.50
2018-03-04T16:36:55.233Z,13.50
2018-03-04T16:39:22.828Z,13.50
2018-03-04T16:41:50.434Z,13.40
2018-03-04T16:44:18.666Z,13.00
2018-03-04T16:46:47.045Z,12.70
2018-03-04T16:49:15.413Z,12.50
2018-03-04T16:51:43.312Z,12.50
2018-03-04T16:54:10.911Z,12.10
2018-03-04T16:56:38.494Z,12.20
2018-03-04T17:01:32.799Z,12.30
2018-03-04T17:04:00.428Z,12.20
2018-03-04T17:06:28.007Z,12.20
2018-03-04T17:08:56.154Z,11.80
2018-03-04T17:11:24.246Z,11.80
2018-03-04T17:13:51.878Z,11.70
2018-03-04T17:16:19.490Z,11.70
2018-03-04T17:18:47.639Z,11.70
2018-03-04T17:21:16.578Z,11.70
2018-03-04T17:23:44.209Z,11.80
2018-03-04T17:26:11.820Z,11.80
2018-03-04T17:28:39.452Z,11.90
2018-03-04T17:31:07.821Z,12.00
2018-03-04T17:33:36.633Z,12.10
2018-03-04T17:36:04.870Z,12.30
2018-03-04T17:38:33.876Z,12.30
2018-03-04T17:41:02.241Z,12.20
2018-03-04T17:43:29.846Z,11.80
2018-03-04T17:45:57.423Z,11.90
2018-03-04T17:48:25.907Z,11.90
2018-03-04T17:50:54.819Z,11.90
2018-03-04T17:53:22.759Z,11.80
2018-03-04T17:55:50.390Z,11.80
2018-03-04T17:58:18.848Z,11.80
2018-03-04T18:00:46.452Z,11.90
2018-03-04T18:03:15.570Z,11.90
2018-03-04T18:05:44.355Z,11.90
2018-03-04T18:08:11.962Z,12.00
2018-03-04T18:10:39.657Z,12.00
2018-03-04T18:13:07.243Z,11.90
2018-03-04T18:15:35.007Z,11.80
2018-03-04T18:18:02.607Z,11.80
2018-03-04T18:20:30.232Z,11.90
2018-03-04T18:22:58.889Z,11.80
2018-03-04T18:25:26.642Z,11.70
2018-03-04T18:27:54.326Z,11.60
2018-03-04T18:30:21.960Z,11.20
2018-03-04T18:32:50.353Z,11.10
2018-03-04T18:35:17.952Z,9.80
2018-03-04T18:37:45.677Z,11.30
2018-03-04T18:40:14.075Z,11.40
2018-03-04T18:42:41.667Z,11.50
2018-03-04T18:45:09.411Z,11.40
2018-03-04T18:47:38.157Z,11.50
2018-03-04T18:50:05.828Z,11.60
2018-03-04T18:52:34.191Z,11.60
2018-03-04T18:55:01.811Z,11.70
2018-03-04T18:57:29.407Z,11.70
2018-03-04T18:59:58.090Z,11.70
2018-03-04T19:02:25.695Z,11.70
2018-03-04T19:04:53.328Z,11.80
2018-03-04T19:07:21.712Z,11.70
2018-03-04T19:09:50.116Z,11.70
2018-03-04T19:12:17.722Z,11.60
2018-03-04T19:14:56.291Z,11.50
2018-03-04T19:17:24.940Z,11.50
2018-03-04T19:19:52.531Z,11.50
2018-03-04T19:22:20.201Z,11.60
2018-03-04T19:24:49.362Z,11.60
2018-03-04T19:27:16.979Z,11.70
2018-03-04T19:29:44.621Z,11.70
2018-03-04T19:32:13.007Z,11.60
2018-03-04T19:34:41.400Z,11.50
2018-03-04T19:37:09.815Z,11.50
2018-03-04T19:39:37.393Z,11.50
2018-03-04T19:42:05.061Z,11.30
2018-03-04T19:44:32.913Z,11.30
2018-03-04T19:47:02.360Z,11.10
2018-03-04T19:49:30.759Z,11.00
2018-03-04T19:51:58.410Z,10.90
2018-03-04T19:54:26.929Z,10.90
2018-03-04T19:56:54.550Z,10.80
2018-03-04T19:59:23.796Z,10.70
2018-03-04T20:01:51.410Z,10.60
2018-03-04T20:04:19.989Z,10.60
2018-03-04T20:06:47.632Z,10.70
2018-03-04T20:09:15.328Z,10.70
2018-03-04T20:11:44.018Z,10.70
2018-03-04T20:14:11.606Z,10.70
2018-03-04T20:16:40.139Z,10.80
2018-03-04T20:19:08.639Z,10.90
2018-03-04T20:21:36.736Z,10.80
2018-03-04T20:24:04.360Z,10.70
2018-03-04T20:26:33.278Z,10.70
2018-03-04T20:29:00.984Z,10.70
2018-03-04T20:31:29.009Z,10.70
2018-03-04T20:33:56.608Z,10.70
2018-03-04T20:36:25.283Z,10.80
2018-03-04T20:38:53.266Z,10.80
2018-03-04T20:41:21.775Z,10.80
2018-03-04T20:43:50.497Z,10.70
2018-03-04T20:46:18.260Z,10.60
2018-03-04T20:48:46.000Z,10.50
2018-03-04T20:51:14.262Z,10.50
2018-03-04T20:53:42.502Z,10.50
2018-03-04T20:56:12.806Z,10.40
2018-03-04T20:58:41.024Z,10.30
2018-03-04T21:01:08.711Z,10.30
2018-03-04T21:03:36.786Z,10.30
2018-03-04T21:06:04.687Z,10.30
2018-03-04T21:08:33.089Z,10.20
2018-03-04T21:11:00.765Z,10.20
2018-03-04T21:13:28.802Z,10.30
2018-03-04T21:15:57.303Z,10.40
2018-03-04T21:18:31.867Z,10.20
2018-03-04T21:20:59.862Z,10.20
2018-03-04T21:23:27.904Z,10.30
2018-03-04T21:25:56.330Z,10.20
2018-03-04T21:28:24.676Z,10.10
2018-03-04T21:30:53.447Z,10.10
2018-03-04T21:33:21.150Z,10.00
2018-03-04T21:35:48.854Z,10.00
2018-03-04T21:38:16.886Z,9.80
2018-03-04T21:40:45.266Z,9.80
2018-03-04T21:43:12.897Z,9.90
2018-03-04T21:45:40.643Z,10.00
2018-03-04T21:48:08.354Z,10.00
2018-03-04T21:50:36.093Z,10.00
2018-03-04T21:53:04.724Z,10.00
2018-03-04T21:55:32.373Z,10.10
2018-03-04T21:58:00.127Z,10.10
2018-03-04T22:00:28.207Z,10.10
2018-03-04T22:02:55.920Z,10.10
2018-03-04T22:05:23.545Z,10.00
2018-03-04T22:07:51.632Z,9.90
2018-03-04T22:10:20.326Z,9.90
2018-03-04T22:12:50.973Z,9.80
2018-03-04T22:15:19.609Z,9.70
2018-03-04T22:17:48.018Z,9.80
2018-03-04T22:20:16.846Z,9.80
2018-03-04T22:22:45.266Z,9.80
2018-03-04T22:25:14.015Z,9.90
2018-03-04T22:27:42.442Z,9.90
2018-03-04T22:30:10.249Z,9.90
2018-03-04T22:32:37.910Z,9.90
2018-03-04T22:35:06.649Z,9.60
2018-03-04T22:37:34.750Z,9.60
2018-03-04T22:40:04.065Z,9.70
2018-03-04T22:42:32.056Z,9.70
2018-03-04T22:44:59.760Z,9.70
2018-03-04T22:47:29.022Z,8.40
2018-03-04T22:49:56.669Z,9.60
2018-03-04T22:52:25.879Z,9.70
2018-03-04T22:54:54.106Z,9.70
2018-03-04T22:57:21.723Z,9.60
2018-03-04T22:59:49.767Z,9.70
2018-03-04T23:02:18.812Z,9.60
2018-03-04T23:04:46.512Z,9.60
2018-03-04T23:07:14.996Z,9.70
2018-03-04T23:09:43.278Z,9.60
2018-03-04T23:12:11.431Z,9.50
2018-03-04T23:14:40.148Z,9.50
2018-03-04T23:17:08.032Z,9.50
2018-03-04T23:19:37.657Z,9.50
2018-03-04T23:22:05.380Z,9.60
2018-03-04T23:24:35.383Z,9.70
2018-03-04T23:27:03.005Z,9.70
2018-03-04T23:29:31.727Z,9.70
2018-03-04T23:32:00.478Z,9.70
2018-03-04T23:34:28.175Z,9.70
2018-03-04T23:36:56.841Z,9.70
2018-03-04T23:39:24.927Z,9.50
2018-03-04T23:41:53.238Z,9.60
2018-03-04T23:44:21.047Z,9.70
2018-03-04T23:46:49.680Z,9.70
2018-03-04T23:49:18.150Z,9.80
2018-03-04T23:51:47.092Z,10.00
2018-03-04T23:54:14.731Z,10.00
2018-03-04T23:56:42.510Z,10.00
2018-03-04T23:59:10.309Z,10.10
